Time;durP1;ratioP1;P1;durP2;ratioP2;P2;SDS_P1;SDS_P2;PMS_P1;PMS_P2;Temp;Humidity;BMP_temperature;BMP_pressure;BME280_temperature;BME280_humidity;BME280_pressure;Samples;Min_cycle;Max_cycle;Signal;HPM_P1;HPM_P2
2022/05/13 00:00:57;;;;;;;25.67;23.35;;;;;;;;;;5005567;28;20514;-70
2022/05/13 00:03:23;;;;;;;25.33;22.88;;;;;;;;;;5007841;28;20034;-70
2022/05/13 00:05:52;;;;;;;26.55;24.00;;;;;;;;;;5010771;28;20087;-71
2022/05/13 00:08:18;;;;;;;25.65;23.27;;;;;;;;;;5010545;28;20048;-71
2022/05/13 00:10:44;;;;;;;26.40;23.77;;;;;;;;;;5016550;28;20034;-71
2022/05/13 00:13:10;;;;;;;24.23;22.13;;;;;;;;;;5008512;28;20157;-71
2022/05/13 00:15:36;;;;;;;26.75;23.92;;;;;;;;;;5007374;28;20073;-71
2022/05/13 00:18:02;;;;;;;27.75;23.33;;;;;;;;;;5007280;28;20057;-71
2022/05/13 00:20:28;;;;;;;24.77;22.52;;;;;;;;;;5011431;28;20045;-71
2022/05/13 00:22:56;;;;;;;25.27;23.08;;;;;;;;;;5014797;28;20034;-71
2022/05/13 00:25:25;;;;;;;25.48;23.20;;;;;;;;;;5010799;28;20054;-71
2022/05/13 00:27:53;;;;;;;23.42;21.40;;;;;;;;;;5011899;28;20034;-71
2022/05/13 00:30:19;;;;;;;26.55;22.52;;;;;;;;;;5010993;28;20129;-71
2022/05/13 00:32:45;;;;;;;25.13;22.58;;;;;;;;;;5009998;28;20164;-71
2022/05/13 00:35:11;;;;;;;24.77;22.17;;;;;;;;;;5008522;28;20042;-71
2022/05/13 00:37:37;;;;;;;24.40;22.05;;;;;;;;;;5008628;28;20033;-71
2022/05/13 00:40:04;;;;;;;24.70;22.13;;;;;;;;;;5010436;28;20048;-71
2022/05/13 00:42:30;;;;;;;24.38;21.92;;;;;;;;;;5011219;28;20528;-71
2022/05/13 00:44:57;;;;;;;25.17;22.77;;;;;;;;;;5011995;28;20304;-71
2022/05/13 00:47:22;;;;;;;25.60;23.23;;;;;;;;;;5011613;28;20033;-71
2022/05/13 00:49:48;;;;;;;25.67;23.15;;;;;;;;;;5008425;28;20032;-71
2022/05/13 00:52:15;;;;;;;26.63;23.85;;;;;;;;;;5014517;28;20046;-71
2022/05/13 00:54:42;;;;;;;27.00;24.30;;;;;;;;;;5015072;28;20068;-71
2022/05/13 00:57:11;;;;;;;26.67;23.98;;;;;;;;;;5009744;28;20033;-70
2022/05/13 00:59:40;;;;;;;24.63;22.23;;;;;;;;;;5007997;28;20029;-70
2022/05/13 01:02:05;;;;;;;26.10;23.42;;;;;;;;;;5009971;28;20092;-70
2022/05/13 01:04:34;;;;;;;25.77;23.30;;;;;;;;;;5010373;28;20432;-70
2022/05/13 01:07:05;;;;;;;25.88;23.38;;;;;;;;;;5009577;28;20441;-70
2022/05/13 01:09:46;;;;;;;25.48;23.08;;;;;;;;;;5010264;28;20045;-70
2022/05/13 01:12:15;;;;;;;25.80;23.33;;;;;;;;;;5014482;28;20030;-71
2022/05/13 01:14:47;;;;;;;29.60;25.00;;;;;;;;;;5009512;28;20108;-71
2022/05/13 01:20:02;;;;;;;;;;;;;;;;;;5010883;28;20034;-71
2022/05/13 01:22:28;;;;;;;27.45;24.95;;;;;;;;;;5011431;28;19926;-72
2022/05/13 01:24:55;;;;;;;26.63;24.08;;;;;;;;;;5013703;28;20378;-71
2022/05/13 01:27:20;;;;;;;28.05;24.48;;;;;;;;;;5011707;28;20119;-70
2022/05/13 01:29:46;;;;;;;27.92;24.15;;;;;;;;;;5011222;28;20068;-71
2022/05/13 01:32:11;;;;;;;28.27;25.33;;;;;;;;;;5010024;28;20034;-69
2022/05/13 01:34:37;;;;;;;27.42;24.33;;;;;;;;;;5007732;28;20223;-71
2022/05/13 01:37:03;;;;;;;27.27;24.67;;;;;;;;;;5008275;28;20034;-71
2022/05/13 01:39:28;;;;;;;25.80;23.45;;;;;;;;;;5012043;28;20045;-71
2022/05/13 01:41:54;;;;;;;26.88;24.15;;;;;;;;;;5008878;28;20036;-70
2022/05/13 01:44:19;;;;;;;27.40;24.75;;;;;;;;;;5009843;28;20060;-71
2022/05/13 01:46:46;;;;;;;26.88;24.08;;;;;;;;;;5009358;28;20030;-71
2022/05/13 01:49:12;;;;;;;27.10;24.30;;;;;;;;;;5009253;28;20656;-70
2022/05/13 01:51:38;;;;;;;25.83;23.63;;;;;;;;;;5008912;28;20045;-71
2022/05/13 01:54:04;;;;;;;26.23;23.45;;;;;;;;;;5012777;28;20836;-71
2022/05/13 01:56:30;;;;;;;27.98;25.10;;;;;;;;;;5013315;28;20045;-71
2022/05/13 01:58:56;;;;;;;27.90;25.23;;;;;;;;;;5021796;28;20053;-71
2022/05/13 02:01:21;;;;;;;27.17;24.33;;;;;;;;;;5006889;28;20101;-71
2022/05/13 02:03:47;;;;;;;27.25;24.40;;;;;;;;;;5004569;28;20544;-71
2022/05/13 02:06:27;;;;;;;27.80;24.77;;;;;;;;;;5008381;28;20229;-71
2022/05/13 02:08:55;;;;;;;27.02;24.25;;;;;;;;;;5007715;28;20025;-72
2022/05/13 02:11:23;;;;;;;27.25;24.48;;;;;;;;;;5015450;28;20578;-70
2022/05/13 02:13:49;;;;;;;27.55;24.20;;;;;;;;;;5009394;28;20494;-71
2022/05/13 02:16:15;;;;;;;28.77;25.35;;;;;;;;;;5010223;28;20064;-72
2022/05/13 02:18:41;;;;;;;41.70;27.77;;;;;;;;;;5009601;28;20505;-72
2022/05/13 02:21:08;;;;;;;34.90;27.52;;;;;;;;;;5013384;28;20505;-72
2022/05/13 02:23:34;;;;;;;32.05;27.40;;;;;;;;;;5012026;28;20187;-72
2022/05/13 02:26:02;;;;;;;25.20;22.77;;;;;;;;;;5006270;28;20068;-72
2022/05/13 02:28:30;;;;;;;30.45;27.17;;;;;;;;;;5012519;28;20129;-71
2022/05/13 02:30:56;;;;;;;30.05;27.05;;;;;;;;;;5010185;28;20041;-72
2022/05/13 02:33:22;;;;;;;29.00;26.02;;;;;;;;;;5009266;28;20026;-71
2022/05/13 02:35:48;;;;;;;26.38;23.77;;;;;;;;;;5014558;28;20503;-73
2022/05/13 02:38:15;;;;;;;24.48;21.98;;;;;;;;;;5006099;28;20038;-72
2022/05/13 02:43:26;;;;;;;23.45;21.25;;;;;;;;;;5010653;28;20485;-73
2022/05/13 02:45:52;;;;;;;23.67;21.20;;;;;;;;;;5009296;28;20041;-73
2022/05/13 02:48:18;;;;;;;25.42;22.75;;;;;;;;;;5015501;28;20045;-72
2022/05/13 02:50:44;;;;;;;22.77;20.50;;;;;;;;;;5009067;28;20382;-72
2022/05/13 02:53:10;;;;;;;21.63;19.50;;;;;;;;;;5010086;28;20030;-72
2022/05/13 02:55:35;;;;;;;21.13;19.33;;;;;;;;;;5009124;28;20493;-72
2022/05/13 02:58:01;;;;;;;21.48;19.67;;;;;;;;;;5007573;28;20063;-71
2022/05/13 03:00:27;;;;;;;21.52;19.42;;;;;;;;;;5007173;28;20029;-71
2022/05/13 03:02:52;;;;;;;22.02;20.08;;;;;;;;;;5006538;28;20029;-72
2022/05/13 03:05:18;;;;;;;23.13;20.85;;;;;;;;;;5007964;28;20073;-72
2022/05/13 03:07:43;;;;;;;22.35;19.92;;;;;;;;;;5007769;28;20042;-71
2022/05/13 03:10:09;;;;;;;23.50;21.13;;;;;;;;;;5008585;28;20093;-72
2022/05/13 03:12:35;;;;;;;22.60;20.52;;;;;;;;;;5008526;28;20038;-73
2022/05/13 03:15:02;;;;;;;22.48;20.27;;;;;;;;;;5009019;28;20121;-73
2022/05/13 03:17:28;;;;;;;23.08;19.95;;;;;;;;;;5005326;28;20033;-73
2022/05/13 03:19:54;;;;;;;22.60;20.23;;;;;;;;;;5007700;28;20033;-71
2022/05/13 03:22:20;;;;;;;22.60;20.35;;;;;;;;;;5013236;28;20092;-71
2022/05/13 03:24:45;;;;;;;22.60;20.48;;;;;;;;;;5016848;28;20360;-71
2022/05/13 03:27:11;;;;;;;22.67;20.55;;;;;;;;;;5011066;28;20029;-72
2022/05/13 03:29:36;;;;;;;24.20;20.45;;;;;;;;;;5009125;28;20068;-72
2022/05/13 03:32:07;;;;;;;23.33;20.83;;;;;;;;;;5015666;28;20030;-70
2022/05/13 03:34:33;;;;;;;23.10;20.27;;;;;;;;;;5003673;28;20034;-70
2022/05/13 03:36:58;;;;;;;22.30;20.20;;;;;;;;;;5016854;28;20034;-70
2022/05/13 03:39:24;;;;;;;21.95;20.05;;;;;;;;;;5010526;28;20042;-72
2022/05/13 03:41:50;;;;;;;22.75;19.55;;;;;;;;;;5010029;28;20076;-72
2022/05/13 03:44:18;;;;;;;22.08;19.73;;;;;;;;;;5015464;28;20136;-72
2022/05/13 03:46:43;;;;;;;22.63;20.42;;;;;;;;;;5020232;28;20060;-72
2022/05/13 03:49:09;;;;;;;22.27;20.17;;;;;;;;;;5012232;28;20034;-71
2022/05/13 03:51:35;;;;;;;22.05;19.83;;;;;;;;;;5013108;28;20030;-70
2022/05/13 03:54:01;;;;;;;22.75;20.45;;;;;;;;;;5022368;28;20045;-70
2022/05/13 03:56:26;;;;;;;22.20;20.20;;;;;;;;;;5018688;28;20292;-72
2022/05/13 03:58:52;;;;;;;22.23;20.33;;;;;;;;;;5013334;28;20117;-72
2022/05/13 04:01:18;;;;;;;22.35;20.48;;;;;;;;;;5018099;28;20045;-73
2022/05/13 04:03:46;;;;;;;24.02;21.73;;;;;;;;;;5015055;28;20080;-72
2022/05/13 04:08:59;;;;;;;22.83;20.75;;;;;;;;;;5010047;28;20100;-71
2022/05/13 04:16:04;;;;;;;23.55;21.30;;;;;;;;;;5012870;28;20033;-72
2022/05/13 04:17:12;;;;;;;23.55;21.33;;;;;;;;;;5009169;28;20033;-71
2022/05/13 04:19:38;;;;;;;25.48;22.85;;;;;;;;;;5010339;28;20037;-71
2022/05/13 04:22:04;;;;;;;24.10;21.90;;;;;;;;;;5017196;28;20042;-70
2022/05/13 04:24:29;;;;;;;23.55;21.35;;;;;;;;;;5024404;28;20037;-71
2022/05/13 04:26:55;;;;;;;22.77;20.67;;;;;;;;;;5014278;28;20065;-72
2022/05/13 04:29:21;;;;;;;24.33;21.77;;;;;;;;;;5010470;28;20072;-73
2022/05/13 04:31:46;;;;;;;23.20;21.13;;;;;;;;;;5011858;28;20092;-71
2022/05/13 04:34:12;;;;;;;24.60;22.13;;;;;;;;;;5011396;28;20382;-72
2022/05/13 04:36:38;;;;;;;23.85;21.65;;;;;;;;;;5008697;28;20038;-72
2022/05/13 04:39:04;;;;;;;23.55;21.23;;;;;;;;;;5012278;28;20037;-73
2022/05/13 04:44:15;;;;;;;23.38;21.10;;;;;;;;;;5008968;28;20037;-71
2022/05/13 04:46:41;;;;;;;24.05;22.02;;;;;;;;;;5009950;28;20414;-71
2022/05/13 04:49:07;;;;;;;23.45;21.45;;;;;;;;;;5009600;28;20026;-72
2022/05/13 04:51:34;;;;;;;23.50;21.40;;;;;;;;;;5020508;28;20492;-71
2022/05/13 04:53:59;;;;;;;23.52;21.48;;;;;;;;;;5021350;28;20072;-71
2022/05/13 04:56:27;;;;;;;24.15;21.75;;;;;;;;;;5019302;28;20034;-70
2022/05/13 04:58:53;;;;;;;25.42;21.73;;;;;;;;;;5013348;28;20037;-72
2022/05/13 05:01:20;;;;;;;23.58;21.48;;;;;;;;;;5015134;28;20034;-73
2022/05/13 05:03:46;;;;;;;26.10;23.73;;;;;;;;;;5013331;28;20341;-72
2022/05/13 05:06:13;;;;;;;27.13;24.42;;;;;;;;;;5022972;28;20038;-71
2022/05/13 05:08:39;;;;;;;31.20;27.92;;;;;;;;;;5018203;28;20124;-73
2022/05/13 05:11:07;;;;;;;33.75;30.05;;;;;;;;;;5012197;28;20041;-72
2022/05/13 05:13:35;;;;;;;36.67;31.73;;;;;;;;;;5015200;28;20034;-73
2022/05/13 05:16:01;;;;;;;37.22;31.67;;;;;;;;;;5015907;28;20409;-72
2022/05/13 05:18:28;;;;;;;38.33;32.08;;;;;;;;;;5011140;28;20076;-73
2022/05/13 05:20:54;;;;;;;41.58;33.63;;;;;;;;;;5008208;28;20037;-73
2022/05/13 05:23:22;;;;;;;35.05;31.25;;;;;;;;;;5014743;28;20042;-72
2022/05/13 05:25:49;;;;;;;35.07;31.17;;;;;;;;;;5010436;28;20075;-73
2022/05/13 05:28:14;;;;;;;35.03;31.25;;;;;;;;;;5010757;28;20022;-72
2022/05/13 05:30:42;;;;;;;31.25;28.10;;;;;;;;;;5005917;28;20060;-73
2022/05/13 05:33:08;;;;;;;31.98;28.63;;;;;;;;;;5016204;28;20038;-74
2022/05/13 05:35:34;;;;;;;41.60;35.97;;;;;;;;;;5018811;28;20091;-72
2022/05/13 05:38:00;;;;;;;47.65;38.78;;;;;;;;;;5009497;28;20493;-71
2022/05/13 05:40:26;;;;;;;58.45;41.60;;;;;;;;;;5009321;28;20030;-72
2022/05/13 05:42:51;;;;;;;57.53;43.55;;;;;;;;;;5008034;28;20034;-72
2022/05/13 05:45:19;;;;;;;56.00;43.22;;;;;;;;;;5010220;28;20045;-71
2022/05/13 05:47:45;;;;;;;41.28;33.15;;;;;;;;;;5008732;28;20038;-72
2022/05/13 05:50:14;;;;;;;29.90;26.83;;;;;;;;;;5008294;28;20088;-72
2022/05/13 05:52:40;;;;;;;35.15;28.98;;;;;;;;;;5010512;28;20041;-71
2022/05/13 05:58:17;;;;;;;29.40;26.40;;;;;;;;;;5017116;28;20030;-72
2022/05/13 06:00:49;;;;;;;38.20;34.17;;;;;;;;;;5011954;28;20096;-73
2022/05/13 06:03:15;;;;;;;38.63;33.65;;;;;;;;;;5010761;28;20029;-72
2022/05/13 06:05:42;;;;;;;31.98;28.55;;;;;;;;;;5017628;28;20071;-72
2022/05/13 06:08:08;;;;;;;31.20;28.00;;;;;;;;;;5017518;28;20042;-72
2022/05/13 06:10:37;;;;;;;29.33;26.52;;;;;;;;;;5014316;28;20049;-72
2022/05/13 06:13:05;;;;;;;26.02;23.60;;;;;;;;;;5014143;28;20045;-71
2022/05/13 06:15:31;;;;;;;27.95;25.42;;;;;;;;;;5016975;28;20087;-72
2022/05/13 06:17:57;;;;;;;27.45;24.95;;;;;;;;;;5015145;28;20433;-72
2022/05/13 06:20:28;;;;;;;28.23;25.38;;;;;;;;;;5017490;28;20323;-72
2022/05/13 06:22:54;;;;;;;27.60;25.00;;;;;;;;;;5014842;28;20030;-70
2022/05/13 06:25:21;;;;;;;27.85;25.30;;;;;;;;;;5015428;28;21753;-71
2022/05/13 06:27:48;;;;;;;27.67;25.17;;;;;;;;;;5014944;28;20035;-72
2022/05/13 06:30:26;;;;;;;27.52;24.75;;;;;;;;;;5015602;28;20559;-72
2022/05/13 06:32:52;;;;;;;28.05;25.25;;;;;;;;;;5010502;28;20033;-72
2022/05/13 06:35:19;;;;;;;26.70;24.40;;;;;;;;;;5018022;28;20065;-71
2022/05/13 06:37:44;;;;;;;26.20;23.63;;;;;;;;;;5010955;28;21495;-72
2022/05/13 06:40:10;;;;;;;29.42;26.25;;;;;;;;;;5017931;28;20327;-72
2022/05/13 06:42:36;;;;;;;31.77;28.48;;;;;;;;;;5014454;28;20035;-71
2022/05/13 06:45:02;;;;;;;30.10;27.25;;;;;;;;;;5016959;28;20034;-72
2022/05/13 06:47:28;;;;;;;36.50;32.70;;;;;;;;;;5013481;28;20433;-71
2022/05/13 06:49:54;;;;;;;35.58;29.55;;;;;;;;;;5014253;28;20037;-72
2022/05/13 06:52:19;;;;;;;29.98;26.98;;;;;;;;;;5011338;28;20965;-71
2022/05/13 06:54:45;;;;;;;30.75;26.13;;;;;;;;;;5014581;28;20033;-73
2022/05/13 06:57:10;;;;;;;27.55;24.85;;;;;;;;;;5011501;28;20107;-69
2022/05/13 06:59:37;;;;;;;26.35;23.77;;;;;;;;;;5005456;28;20033;-71
2022/05/13 07:02:04;;;;;;;26.48;23.67;;;;;;;;;;5016240;28;20026;-72
2022/05/13 07:04:29;;;;;;;25.17;22.83;;;;;;;;;;5013468;28;20045;-72
2022/05/13 07:06:55;;;;;;;23.88;21.60;;;;;;;;;;5013691;28;20060;-71
2022/05/13 07:09:20;;;;;;;25.58;22.80;;;;;;;;;;5015867;28;20037;-72
2022/05/13 07:11:46;;;;;;;24.88;22.23;;;;;;;;;;5019774;28;20044;-75
2022/05/13 07:14:12;;;;;;;26.17;20.73;;;;;;;;;;5018709;28;20489;-71
2022/05/13 07:16:38;;;;;;;23.85;21.40;;;;;;;;;;5017073;28;20235;-72
2022/05/13 07:19:04;;;;;;;22.38;20.40;;;;;;;;;;5024276;28;20032;-71
2022/05/13 07:21:30;;;;;;;22.95;20.73;;;;;;;;;;5018382;28;20376;-73
2022/05/13 07:23:56;;;;;;;23.08;20.38;;;;;;;;;;5020569;28;20439;-72
2022/05/13 07:26:22;;;;;;;21.67;19.63;;;;;;;;;;5018705;28;20610;-71
2022/05/13 07:28:48;;;;;;;23.35;20.58;;;;;;;;;;5019125;28;20481;-72
2022/05/13 07:31:13;;;;;;;23.17;20.85;;;;;;;;;;5018688;28;20033;-70
2022/05/13 07:33:39;;;;;;;21.42;19.33;;;;;;;;;;5016982;28;20590;-72
2022/05/13 07:36:05;;;;;;;21.42;19.42;;;;;;;;;;5015152;28;20287;-72
2022/05/13 07:38:32;;;;;;;22.20;20.05;;;;;;;;;;5011345;28;20430;-72
2022/05/13 07:41:35;;;;;;;23.23;20.23;;;;;;;;;;5015304;28;20538;-71
2022/05/13 07:43:54;;;;;;;22.35;20.10;;;;;;;;;;5018341;28;20422;-71
2022/05/13 07:46:19;;;;;;;22.92;20.17;;;;;;;;;;5021712;28;20111;-72
2022/05/13 07:48:45;;;;;;;22.83;19.85;;;;;;;;;;5012062;28;20038;-71
2022/05/13 07:51:11;;;;;;;21.92;19.75;;;;;;;;;;5015409;28;20113;-71
2022/05/13 07:53:37;;;;;;;22.40;20.48;;;;;;;;;;5022382;28;20029;-71
2022/05/13 07:56:04;;;;;;;26.27;21.27;;;;;;;;;;5022816;28;20026;-73
2022/05/13 07:58:29;;;;;;;22.40;20.25;;;;;;;;;;5017488;28;20348;-71
2022/05/13 08:00:55;;;;;;;20.95;19.20;;;;;;;;;;5022692;28;20120;-71
2022/05/13 08:03:21;;;;;;;21.38;19.48;;;;;;;;;;5015397;28;20489;-72
2022/05/13 08:05:50;;;;;;;21.80;19.95;;;;;;;;;;5015923;28;20041;-71
2022/05/13 08:08:24;;;;;;;22.20;20.20;;;;;;;;;;5006173;28;20038;-72
2022/05/13 08:10:54;;;;;;;21.73;19.58;;;;;;;;;;5011882;28;20389;-71
2022/05/13 08:13:20;;;;;;;21.48;19.48;;;;;;;;;;5014173;28;20033;-71
2022/05/13 08:15:47;;;;;;;21.98;19.92;;;;;;;;;;5016954;28;20515;-72
2022/05/13 08:18:14;;;;;;;23.23;20.95;;;;;;;;;;5013183;28;20033;-72
2022/05/13 08:20:40;;;;;;;20.92;19.05;;;;;;;;;;5014892;28;20177;-72
2022/05/13 08:23:06;;;;;;;19.27;17.27;;;;;;;;;;5014999;28;20175;-70
2022/05/13 08:25:32;;;;;;;20.80;18.65;;;;;;;;;;5013341;28;20038;-72
2022/05/13 08:27:58;;;;;;;19.67;17.50;;;;;;;;;;5016743;28;20046;-72
2022/05/13 08:30:24;;;;;;;19.98;18.02;;;;;;;;;;5013503;28;20066;-73
2022/05/13 08:32:49;;;;;;;20.45;17.23;;;;;;;;;;5005374;28;20061;-72
2022/05/13 08:35:16;;;;;;;19.05;17.38;;;;;;;;;;5013491;28;20060;-71
2022/05/13 08:37:44;;;;;;;19.25;17.48;;;;;;;;;;5014180;28;20470;-72
2022/05/13 08:40:29;;;;;;;18.53;16.87;;;;;;;;;;4999469;28;20505;-71
2022/05/13 08:42:54;;;;;;;19.88;18.10;;;;;;;;;;5014513;28;20496;-71
2022/05/13 08:45:21;;;;;;;18.98;17.13;;;;;;;;;;5017904;28;20037;-70
2022/05/13 08:47:57;;;;;;;18.88;16.90;;;;;;;;;;5022254;28;20029;-70
2022/05/13 08:50:34;;;;;;;17.80;16.27;;;;;;;;;;5016825;28;20400;-70
2022/05/13 08:53:23;;;;;;;18.23;16.83;;;;;;;;;;5023556;28;20385;-72
2022/05/13 08:55:56;;;;;;;17.88;16.10;;;;;;;;;;5022844;28;20050;-70
2022/05/13 08:58:27;;;;;;;18.20;16.35;;;;;;;;;;5014435;28;20061;-71
2022/05/13 09:00:55;;;;;;;20.55;16.55;;;;;;;;;;5010269;28;20311;-70
2022/05/13 09:03:30;;;;;;;18.42;16.50;;;;;;;;;;5008529;28;20547;-71
2022/05/13 09:06:13;;;;;;;17.95;16.45;;;;;;;;;;5013370;28;20025;-72
2022/05/13 09:08:39;;;;;;;19.10;17.27;;;;;;;;;;5010456;28;20120;-70
2022/05/13 09:11:16;;;;;;;18.52;16.80;;;;;;;;;;5016324;28;20650;-70
2022/05/13 09:14:09;;;;;;;20.08;15.95;;;;;;;;;;5009043;28;20271;-70
2022/05/13 09:16:41;;;;;;;17.75;15.98;;;;;;;;;;5009397;28;20041;-73
2022/05/13 09:19:17;;;;;;;17.25;15.75;;;;;;;;;;5008833;28;20655;-70
2022/05/13 09:21:43;;;;;;;16.58;14.82;;;;;;;;;;5012262;28;20030;-72
2022/05/13 09:24:11;;;;;;;17.10;15.38;;;;;;;;;;5017362;28;20144;-70
2022/05/13 09:26:39;;;;;;;16.60;15.05;;;;;;;;;;5020514;28;20460;-70
2022/05/13 09:29:17;;;;;;;16.50;14.90;;;;;;;;;;5005236;28;20525;-72
2022/05/13 09:32:04;;;;;;;16.73;15.13;;;;;;;;;;5014769;28;20401;-72
2022/05/13 09:34:39;;;;;;;17.55;14.40;;;;;;;;;;5008943;28;20049;-71
2022/05/13 09:37:26;;;;;;;16.08;14.63;;;;;;;;;;5014554;28;20114;-72
2022/05/13 09:40:18;;;;;;;15.05;13.75;;;;;;;;;;5008711;28;20042;-71
2022/05/13 09:42:49;;;;;;;15.13;13.80;;;;;;;;;;5009599;28;20037;-73
2022/05/13 09:45:33;;;;;;;15.85;14.38;;;;;;;;;;5009162;28;20029;-72
2022/05/13 09:48:18;;;;;;;16.80;15.13;;;;;;;;;;5011611;28;20042;-69
2022/05/13 09:50:49;;;;;;;16.05;14.60;;;;;;;;;;5013520;28;20054;-74
2022/05/13 09:53:20;;;;;;;15.63;14.10;;;;;;;;;;5015091;28;20029;-70
2022/05/13 09:55:48;;;;;;;16.50;14.90;;;;;;;;;;5010167;28;20190;-73
2022/05/13 09:58:20;;;;;;;16.10;14.50;;;;;;;;;;5011588;28;20037;-71
2022/05/13 10:00:50;;;;;;;15.95;14.45;;;;;;;;;;5009582;28;20022;-71
2022/05/13 10:03:25;;;;;;;16.50;14.77;;;;;;;;;;5012183;28;20351;-69
2022/05/13 10:06:17;;;;;;;17.13;14.20;;;;;;;;;;5005708;28;20044;-73
2022/05/13 10:08:56;;;;;;;14.25;12.75;;;;;;;;;;5002681;28;20037;-73
2022/05/13 10:14:32;;;;;;;14.30;13.10;;;;;;;;;;5007544;28;20034;-73
2022/05/13 10:17:24;;;;;;;15.63;14.20;;;;;;;;;;5006769;28;20033;-71
2022/05/13 10:19:56;;;;;;;14.40;13.30;;;;;;;;;;5001243;28;20038;-71
2022/05/13 10:22:47;;;;;;;16.05;14.40;;;;;;;;;;5011588;28;20045;-70
2022/05/13 10:25:25;;;;;;;16.05;14.48;;;;;;;;;;5018544;28;20472;-70
2022/05/13 10:27:58;;;;;;;15.77;14.20;;;;;;;;;;5014362;28;20551;-69
2022/05/13 10:30:39;;;;;;;15.02;13.73;;;;;;;;;;5011329;28;20034;-71
2022/05/13 10:33:16;;;;;;;15.40;13.90;;;;;;;;;;5012560;28;20517;-70
2022/05/13 10:35:58;;;;;;;15.93;14.05;;;;;;;;;;5014336;28;20457;-73
2022/05/13 10:38:49;;;;;;;15.88;14.20;;;;;;;;;;5009018;28;20370;-72
2022/05/13 10:41:34;;;;;;;14.70;13.60;;;;;;;;;;5011803;28;20159;-70
2022/05/13 10:44:08;;;;;;;15.00;13.70;;;;;;;;;;5012199;28;20042;-70
2022/05/13 10:46:39;;;;;;;15.43;13.98;;;;;;;;;;5014498;28;20079;-71
2022/05/13 10:49:05;;;;;;;14.73;13.32;;;;;;;;;;5009306;28;20045;-71
2022/05/13 10:52:08;;;;;;;15.18;13.60;;;;;;;;;;5013787;28;20037;-70
2022/05/13 10:54:49;;;;;;;15.40;14.38;;;;;;;;;;5014306;28;20046;-69
2022/05/13 10:57:22;;;;;;;15.07;13.90;;;;;;;;;;5014053;28;20543;-72
2022/05/13 11:00:11;;;;;;;14.73;13.52;;;;;;;;;;5014640;28;20426;-69
2022/05/13 11:02:39;;;;;;;15.43;14.02;;;;;;;;;;5013583;28;20030;-73
2022/05/13 11:05:21;;;;;;;15.47;13.90;;;;;;;;;;5019143;28;20065;-72
2022/05/13 11:08:14;;;;;;;15.27;13.95;;;;;;;;;;5013928;28;20431;-69
2022/05/13 11:11:13;;;;;;;15.93;14.38;;;;;;;;;;5008094;28;20056;-70
2022/05/13 11:13:51;;;;;;;15.93;14.20;;;;;;;;;;5012056;28;20041;-69
2022/05/13 11:16:48;;;;;;;14.70;13.70;;;;;;;;;;5014752;28;20133;-70
2022/05/13 11:19:23;;;;;;;15.00;13.82;;;;;;;;;;5013266;28;20061;-69
2022/05/13 11:22:17;;;;;;;15.02;13.90;;;;;;;;;;5018870;28;20037;-72
2022/05/13 11:28:41;;;;;;;15.40;14.10;;;;;;;;;;5011188;28;20220;-70
2022/05/13 11:31:40;;;;;;;14.93;13.75;;;;;;;;;;4985414;28;20034;-70
2022/05/13 11:34:27;;;;;;;15.43;14.40;;;;;;;;;;5013150;28;20052;-72
2022/05/13 11:37:10;;;;;;;15.13;14.02;;;;;;;;;;5011781;28;20069;-68
2022/05/13 11:40:00;;;;;;;14.55;12.68;;;;;;;;;;5005161;28;20041;-71
2022/05/13 11:46:00;;;;;;;13.68;12.68;;;;;;;;;;5009985;28;20034;-70
2022/05/13 11:48:47;;;;;;;13.70;12.60;;;;;;;;;;5015734;28;20038;-71
2022/05/13 11:51:19;;;;;;;13.77;12.45;;;;;;;;;;5014707;28;20500;-68
2022/05/13 11:54:11;;;;;;;14.13;12.80;;;;;;;;;;5015257;28;20045;-68
2022/05/13 11:56:38;;;;;;;14.68;12.82;;;;;;;;;;5015412;28;20067;-69
2022/05/13 11:59:04;;;;;;;13.15;12.25;;;;;;;;;;5017441;28;20029;-71
2022/05/13 12:01:38;;;;;;;13.43;12.32;;;;;;;;;;5012165;28;20043;-68
2022/05/13 12:04:28;;;;;;;13.75;12.43;;;;;;;;;;5015450;28;20033;-71
2022/05/13 12:06:57;;;;;;;14.82;13.40;;;;;;;;;;5001990;28;20042;-70
2022/05/13 12:09:38;;;;;;;14.13;12.98;;;;;;;;;;5013647;28;20053;-70
2022/05/13 12:12:30;;;;;;;13.85;12.85;;;;;;;;;;5015424;28;20092;-68
2022/05/13 12:15:23;;;;;;;13.80;12.57;;;;;;;;;;5012259;28;20044;-68
2022/05/13 12:17:56;;;;;;;15.50;13.43;;;;;;;;;;5016241;28;20417;-71
2022/05/13 12:20:45;;;;;;;13.88;12.45;;;;;;;;;;5007769;28;20044;-69
2022/05/13 12:23:15;;;;;;;14.02;12.73;;;;;;;;;;5016795;28;20503;-70
2022/05/13 12:26:22;;;;;;;14.27;13.07;;;;;;;;;;5014425;28;20623;-71
2022/05/13 12:28:53;;;;;;;13.80;12.50;;;;;;;;;;4964691;28;20193;-72
2022/05/13 12:31:34;;;;;;;14.35;13.15;;;;;;;;;;4966191;28;20739;-70
2022/05/13 12:40:07;;;;;;;14.38;12.98;;;;;;;;;;4964599;28;20082;-69
2022/05/13 12:42:47;;;;;;;13.93;12.93;;;;;;;;;;4909600;29;20582;-69
2022/05/13 12:45:21;;;;;;;14.20;13.10;;;;;;;;;;4902758;29;20679;-69
2022/05/13 12:48:16;;;;;;;13.43;12.43;;;;;;;;;;4906415;29;20091;-70
2022/05/13 12:50:51;;;;;;;13.68;12.50;;;;;;;;;;4908429;29;20365;-69
2022/05/13 12:53:29;;;;;;;13.40;12.32;;;;;;;;;;4908765;29;20044;-70
2022/05/13 12:56:27;;;;;;;15.57;13.23;;;;;;;;;;4910281;29;20457;-71
2022/05/13 12:58:58;;;;;;;13.87;12.80;;;;;;;;;;4917033;29;20051;-71
2022/05/13 13:01:25;;;;;;;14.10;12.95;;;;;;;;;;4941505;29;20423;-69
2022/05/13 13:03:51;;;;;;;13.88;12.60;;;;;;;;;;4946265;28;20050;-70
2022/05/13 13:06:20;;;;;;;14.50;12.90;;;;;;;;;;4945115;28;20048;-72
2022/05/13 13:08:49;;;;;;;13.57;12.57;;;;;;;;;;4927895;29;20059;-69
2022/05/13 13:11:38;;;;;;;14.02;12.93;;;;;;;;;;4931442;28;20078;-68
2022/05/13 13:14:29;;;;;;;13.70;12.60;;;;;;;;;;4949603;28;20085;-69
2022/05/13 13:17:26;;;;;;;13.77;12.68;;;;;;;;;;4928429;29;20085;-68
2022/05/13 13:19:58;;;;;;;14.25;12.77;;;;;;;;;;5002655;28;20078;-68
2022/05/13 13:22:27;;;;;;;13.60;12.38;;;;;;;;;;5010215;28;20036;-69
2022/05/13 13:24:53;;;;;;;14.75;13.43;;;;;;;;;;5018941;28;20730;-68
2022/05/13 13:27:24;;;;;;;14.23;12.93;;;;;;;;;;5011617;28;20073;-70
2022/05/13 13:29:49;;;;;;;15.15;13.52;;;;;;;;;;5006365;28;20091;-70
2022/05/13 13:32:18;;;;;;;13.80;12.80;;;;;;;;;;5013513;28;20037;-69
2022/05/13 13:34:51;;;;;;;13.13;11.90;;;;;;;;;;5011927;28;20084;-69
2022/05/13 13:37:20;;;;;;;12.95;11.70;;;;;;;;;;5007863;28;20091;-69
2022/05/13 13:39:45;;;;;;;12.20;11.30;;;;;;;;;;5006812;28;20408;-68
2022/05/13 13:42:14;;;;;;;13.82;12.48;;;;;;;;;;5017953;28;20113;-69
2022/05/13 13:44:42;;;;;;;13.15;12.10;;;;;;;;;;5007135;28;20075;-69
2022/05/13 13:47:34;;;;;;;12.70;11.70;;;;;;;;;;5006089;28;20080;-69
2022/05/13 13:49:59;;;;;;;12.90;11.93;;;;;;;;;;5013523;28;20033;-69
2022/05/13 13:52:31;;;;;;;12.77;11.60;;;;;;;;;;5009659;28;20381;-69
2022/05/13 13:55:01;;;;;;;12.48;11.48;;;;;;;;;;5016320;28;20041;-68
2022/05/13 13:57:42;;;;;;;12.52;11.30;;;;;;;;;;5011268;28;20029;-69
2022/05/13 14:00:13;;;;;;;11.63;10.75;;;;;;;;;;5002188;28;20051;-69
2022/05/13 14:02:51;;;;;;;12.18;11.02;;;;;;;;;;5005574;28;20701;-69
2022/05/13 14:05:32;;;;;;;11.43;10.45;;;;;;;;;;5017967;28;20049;-69
2022/05/13 14:07:58;;;;;;;12.23;10.70;;;;;;;;;;5005195;28;20437;-69
2022/05/13 14:10:33;;;;;;;12.23;11.40;;;;;;;;;;5007311;28;20069;-69
2022/05/13 14:13:03;;;;;;;12.30;11.27;;;;;;;;;;5010021;28;20179;-69
2022/05/13 14:15:32;;;;;;;11.73;10.73;;;;;;;;;;5008916;28;20557;-69
2022/05/13 14:17:58;;;;;;;12.30;11.20;;;;;;;;;;5007227;28;20183;-69
2022/05/13 14:21:06;;;;;;;12.73;11.60;;;;;;;;;;5010301;28;20084;-69
2022/05/13 14:23:33;;;;;;;11.43;10.55;;;;;;;;;;5016552;28;20552;-70
2022/05/13 14:26:02;;;;;;;11.40;10.55;;;;;;;;;;5018502;28;20497;-69
2022/05/13 14:28:31;;;;;;;10.90;10.00;;;;;;;;;;5003498;28;20053;-69
2022/05/13 14:31:03;;;;;;;11.40;10.70;;;;;;;;;;5006167;28;20218;-69
2022/05/13 14:33:29;;;;;;;12.38;11.48;;;;;;;;;;5005438;28;20048;-69
2022/05/13 14:36:02;;;;;;;11.65;10.75;;;;;;;;;;5008369;28;20030;-69
2022/05/13 14:41:53;;;;;;;11.90;11.00;;;;;;;;;;5003797;28;20045;-69
2022/05/13 14:44:35;;;;;;;11.95;11.15;;;;;;;;;;5007533;28;20037;-69
2022/05/13 14:47:03;;;;;;;11.63;10.88;;;;;;;;;;5002736;28;20037;-69
2022/05/13 14:49:38;;;;;;;12.40;11.40;;;;;;;;;;5007977;28;20034;-69
2022/05/13 14:52:05;;;;;;;11.95;10.95;;;;;;;;;;5013752;28;20068;-69
2022/05/13 14:54:32;;;;;;;12.10;11.20;;;;;;;;;;5019044;28;20033;-69
2022/05/13 14:57:05;;;;;;;12.57;11.00;;;;;;;;;;5010380;28;20061;-69
2022/05/13 14:59:35;;;;;;;12.05;10.95;;;;;;;;;;5009570;28;20045;-69
2022/05/13 15:02:03;;;;;;;12.15;11.45;;;;;;;;;;5011320;28;20065;-69
2022/05/13 15:04:33;;;;;;;12.10;11.10;;;;;;;;;;5007668;28;20041;-69
2022/05/13 15:07:20;;;;;;;11.98;10.95;;;;;;;;;;5007884;28;20422;-70
2022/05/13 15:09:47;;;;;;;11.50;10.50;;;;;;;;;;5013525;28;20397;-70
2022/05/13 15:12:13;;;;;;;11.93;11.10;;;;;;;;;;5007860;28;20108;-69
2022/05/13 15:14:39;;;;;;;12.65;11.35;;;;;;;;;;5007651;28;20474;-70
2022/05/13 15:17:07;;;;;;;11.90;10.95;;;;;;;;;;5006920;28;20091;-70